Time;durP1;ratioP1;P1;durP2;ratioP2;P2;SDS_P1;SDS_P2;PMS_P1;PMS_P2;Temp;Humidity;BMP_temperature;BMP_pressure;BME280_temperature;BME280_humidity;BME280_pressure;Samples;Min_cycle;Max_cycle;Signal;HPM_P1;HPM_P2
2023/06/02 00:02:51;;;;;;;20.63;9.35;;;;;;;13.61;89.43;100969.38;8256064;28;20042;-66
2023/06/02 00:06:53;;;;;;;17.77;9.20;;;;;;;13.63;89.13;100964.63;8256944;28;20034;-66
2023/06/02 00:10:54;;;;;;;21.92;9.30;;;;;;;13.68;88.95;100957.75;8275306;28;20038;-66
2023/06/02 00:14:55;;;;;;;23.92;8.98;;;;;;;13.72;88.86;100956.44;8256968;28;20034;-66
2023/06/02 00:18:56;;;;;;;18.70;8.52;;;;;;;13.81;88.00;100957.41;8261627;28;20057;-66
2023/06/02 00:22:57;;;;;;;15.40;8.52;;;;;;;13.89;87.35;100952.06;8246468;28;20035;-66
2023/06/02 00:26:57;;;;;;;16.45;8.43;;;;;;;13.94;87.08;100955.22;8251586;28;20074;-66
2023/06/02 00:30:58;;;;;;;16.23;8.20;;;;;;;13.92;86.75;100954.50;8250396;28;20035;-66
2023/06/02 00:34:58;;;;;;;19.15;8.90;;;;;;;13.97;87.24;100954.03;8248689;28;20407;-66
2023/06/02 00:38:59;;;;;;;19.80;8.50;;;;;;;13.91;87.43;100958.22;8262060;28;20092;-66
2023/06/02 00:43:00;;;;;;;18.92;9.05;;;;;;;13.92;87.46;100957.22;8249975;28;20030;-66
2023/06/02 00:47:01;;;;;;;17.95;8.20;;;;;;;14.06;87.35;100958.56;8260831;28;20046;-66
2023/06/02 00:51:02;;;;;;;13.95;8.40;;;;;;;14.13;86.70;100965.09;8259826;28;20069;-66
2023/06/02 00:55:04;;;;;;;15.43;9.20;;;;;;;14.19;87.31;100959.03;8261046;28;20034;-66
2023/06/02 00:59:05;;;;;;;19.95;9.07;;;;;;;14.24;86.88;100957.59;8261421;28;20046;-66
2023/06/02 01:03:07;;;;;;;16.77;8.07;;;;;;;14.24;88.26;100960.31;8260636;28;20110;-66
2023/06/02 01:07:08;;;;;;;13.20;8.18;;;;;;;14.26;87.99;100966.47;8260781;28;20670;-66
2023/06/02 01:11:10;;;;;;;20.65;8.57;;;;;;;14.28;88.96;100967.19;8279892;28;20042;-66
2023/06/02 01:15:11;;;;;;;21.60;9.10;;;;;;;14.37;86.81;100958.09;8259171;28;20038;-66
2023/06/02 01:19:13;;;;;;;17.58;9.43;;;;;;;14.41;85.54;100954.06;8260325;28;20062;-66
2023/06/02 01:23:18;;;;;;;15.20;8.90;;;;;;;14.50;84.78;100958.56;8259339;28;20046;-66
2023/06/02 01:27:20;;;;;;;23.45;9.52;;;;;;;14.50;82.84;100944.97;8257439;28;20082;-64
2023/06/02 01:31:25;;;;;;;17.42;9.05;;;;;;;14.62;81.97;100951.88;8260371;28;20575;-63
2023/06/02 01:35:31;;;;;;;15.52;8.60;;;;;;;14.66;79.84;100939.66;8260536;28;20211;-63
2023/06/02 01:39:33;;;;;;;15.68;7.70;;;;;;;14.67;78.61;100944.09;8260491;28;20042;-65
2023/06/02 01:43:35;;;;;;;14.40;7.88;;;;;;;14.68;77.90;100948.56;8260065;28;20042;-65
2023/06/02 01:47:36;;;;;;;13.90;8.43;;;;;;;14.71;77.37;100948.22;8260000;28;20516;-65
2023/06/02 01:51:37;;;;;;;12.65;7.97;;;;;;;14.72;76.88;100936.31;8260003;28;20050;-65
2023/06/02 01:55:39;;;;;;;19.70;9.30;;;;;;;14.62;76.92;100941.00;8259583;28;20035;-65
2023/06/02 01:59:39;;;;;;;15.07;9.65;;;;;;;14.66;76.66;100942.41;8258286;28;20058;-65
2023/06/02 02:03:45;;;;;;;21.95;11.90;;;;;;;14.60;75.98;100937.56;8247219;28;20045;-65
2023/06/02 02:07:57;;;;;;;24.08;12.95;;;;;;;14.55;75.50;100945.34;8356111;27;20486;-64
2023/06/02 02:12:10;;;;;;;27.55;15.45;;;;;;;14.53;74.96;100941.06;8348763;27;20364;-64
2023/06/02 02:16:10;;;;;;;29.25;16.08;;;;;;;14.50;75.24;100953.13;8351088;28;20029;-64
2023/06/02 02:20:13;;;;;;;27.63;17.25;;;;;;;14.44;74.97;100953.75;8352032;28;20120;-64
2023/06/02 02:24:16;;;;;;;28.42;16.98;;;;;;;14.47;74.87;100953.44;8351296;28;20037;-64
2023/06/02 02:28:16;;;;;;;32.78;19.20;;;;;;;14.40;74.85;100949.63;8351545;28;20069;-61
2023/06/02 02:32:16;;;;;;;32.38;18.77;;;;;;;14.40;74.78;100948.78;8351256;28;20037;-60
2023/06/02 02:36:17;;;;;;;32.35;19.58;;;;;;;14.28;74.83;100950.88;8351132;28;20044;-60
2023/06/02 02:40:18;;;;;;;33.85;19.70;;;;;;;14.26;74.64;100961.03;8351092;28;20741;-61
2023/06/02 02:44:18;;;;;;;32.97;21.38;;;;;;;14.21;74.72;100966.03;8349829;28;20057;-64
2023/06/02 02:48:19;;;;;;;38.88;23.60;;;;;;;14.19;74.15;100970.78;8350491;28;20061;-65
2023/06/02 02:52:20;;;;;;;35.88;22.63;;;;;;;14.30;74.53;100969.75;8350361;28;20123;-64
2023/06/02 02:56:22;;;;;;;41.28;24.60;;;;;;;14.22;73.90;100973.22;8333207;28;20055;-64
2023/06/02 03:00:23;;;;;;;37.70;23.80;;;;;;;14.23;73.69;100972.22;8317669;28;20041;-64
2023/06/02 03:04:24;;;;;;;33.85;23.92;;;;;;;14.08;73.92;100978.28;8316489;28;20042;-64
2023/06/02 03:08:27;;;;;;;39.95;23.23;;;;;;;14.15;73.84;100973.97;8320771;28;20049;-64
2023/06/02 03:12:27;;;;;;;31.02;21.48;;;;;;;14.07;73.94;100980.16;8349531;28;20071;-64
2023/06/02 03:16:29;;;;;;;28.38;16.42;;;;;;;14.10;73.38;100981.72;8349456;28;20041;-64
2023/06/02 03:20:31;;;;;;;27.13;17.75;;;;;;;13.97;73.82;100981.22;8344066;28;20511;-65
2023/06/02 03:24:32;;;;;;;28.95;16.70;;;;;;;13.83;74.04;100977.13;8326618;28;20128;-65
2023/06/02 03:28:36;;;;;;;32.30;16.77;;;;;;;13.87;74.29;100988.56;8327312;28;20045;-64
2023/06/02 03:32:37;;;;;;;26.20;16.80;;;;;;;13.81;73.90;100987.28;8327260;28;20048;-64
2023/06/02 03:36:38;;;;;;;32.13;19.70;;;;;;;13.92;74.20;100997.97;8326847;28;20050;-64
2023/06/02 03:40:40;;;;;;;39.92;24.73;;;;;;;13.84;73.42;100992.44;8326590;28;20048;-64
2023/06/02 03:44:41;;;;;;;45.88;29.15;;;;;;;13.75;73.42;100988.75;8317798;28;20057;-65
2023/06/02 03:48:41;;;;;;;52.50;30.88;;;;;;;13.76;73.21;100989.63;8298965;28;20480;-65
2023/06/02 03:52:42;;;;;;;50.10;29.35;;;;;;;13.71;72.79;100997.34;8313035;28;20120;-65
2023/06/02 03:56:43;;;;;;;52.58;29.65;;;;;;;13.67;73.19;101006.81;8326444;28;20518;-64
2023/06/02 04:00:44;;;;;;;53.45;29.23;;;;;;;13.75;72.66;101004.19;8320361;28;20397;-65
2023/06/02 04:04:45;;;;;;;43.55;26.60;;;;;;;13.78;72.39;101003.91;8292693;28;20672;-64
2023/06/02 04:08:47;;;;;;;41.28;24.88;;;;;;;13.81;72.36;101014.47;8311070;28;20124;-65
2023/06/02 04:12:48;;;;;;;41.67;25.20;;;;;;;13.66;71.99;101014.09;8311684;28;20038;-65
2023/06/02 04:16:50;;;;;;;45.10;25.08;;;;;;;13.74;72.32;101013.34;8314503;28;20040;-64
2023/06/02 04:20:52;;;;;;;39.47;25.83;;;;;;;13.85;72.63;101010.47;8321840;28;20386;-64
2023/06/02 04:24:53;;;;;;;37.45;25.52;;;;;;;13.81;72.08;101009.03;8294059;28;20088;-65
2023/06/02 04:28:54;;;;;;;43.65;25.90;;;;;;;13.77;72.51;101021.22;8291349;28;20068;-65
2023/06/02 04:32:55;;;;;;;37.70;24.27;;;;;;;13.80;72.48;101012.75;8287343;28;20129;-65
2023/06/02 04:36:56;;;;;;;34.92;22.92;;;;;;;13.78;72.52;101021.06;8290376;28;20041;-65
2023/06/02 04:40:58;;;;;;;36.65;21.42;;;;;;;13.69;72.16;101026.53;8293051;28;20539;-64
2023/06/02 04:45:03;;;;;;;37.83;22.48;;;;;;;13.74;72.60;101024.22;8321185;28;20411;-64
2023/06/02 04:49:08;;;;;;;36.95;20.98;;;;;;;13.70;72.51;101025.53;8322825;28;20099;-65
2023/06/02 04:53:09;;;;;;;39.87;21.50;;;;;;;13.75;72.65;101024.09;8318198;28;20037;-65
2023/06/02 04:57:11;;;;;;;38.20;22.15;;;;;;;13.59;72.41;101031.13;8315536;28;20052;-64
2023/06/02 05:01:12;;;;;;;41.40;21.60;;;;;;;13.55;72.62;101035.16;8322507;28;20100;-65
2023/06/02 05:05:12;;;;;;;44.58;23.48;;;;;;;13.55;72.36;101025.13;8313552;28;20042;-65
2023/06/02 05:09:14;;;;;;;41.70;23.48;;;;;;;13.63;72.07;101032.53;8299251;28;20047;-64
2023/06/02 05:13:16;;;;;;;38.22;24.38;;;;;;;13.58;72.41;101029.44;8312214;28;20492;-62
2023/06/02 05:17:23;;;;;;;44.63;26.88;;;;;;;13.73;71.99;101027.97;8315433;28;20044;-64
2023/06/02 05:21:24;;;;;;;43.35;28.30;;;;;;;13.63;71.64;101024.41;8291066;28;20068;-64
2023/06/02 05:25:25;;;;;;;57.42;31.95;;;;;;;13.50;71.27;101021.16;8314558;28;20038;-64
2023/06/02 05:29:26;;;;;;;49.95;28.58;;;;;;;13.45;71.17;101040.59;8317019;28;20092;-65
2023/06/02 05:33:27;;;;;;;48.25;29.48;;;;;;;13.40;71.12;101031.19;8318169;28;20123;-65
2023/06/02 05:37:28;;;;;;;51.92;27.50;;;;;;;13.47;71.26;101037.75;8319035;28;20059;-62
2023/06/02 05:41:28;;;;;;;37.20;22.85;;;;;;;13.52;71.00;101041.75;8314687;28;20048;-63
2023/06/02 05:45:29;;;;;;;40.17;20.55;;;;;;;13.47;70.74;101043.19;8316837;28;20124;-63
2023/06/02 05:49:30;;;;;;;35.10;19.95;;;;;;;13.46;69.61;101046.91;8331353;28;20071;-63
2023/06/02 05:53:32;;;;;;;26.40;16.23;;;;;;;13.50;69.47;101059.19;8332383;28;20041;-63
2023/06/02 05:57:33;;;;;;;31.08;14.73;;;;;;;13.58;69.21;101053.88;8315835;28;20407;-63
2023/06/02 06:01:33;;;;;;;25.80;14.23;;;;;;;13.52;69.60;101057.19;8323424;28;20080;-63
2023/06/02 06:05:34;;;;;;;25.58;13.23;;;;;;;13.52;69.45;101066.22;8320697;28;20128;-63
2023/06/02 06:09:35;;;;;;;24.83;13.07;;;;;;;13.77;69.90;101061.97;8309969;28;20058;-63
2023/06/02 06:13:38;;;;;;;29.17;13.90;;;;;;;13.82;69.34;101057.81;8311342;28;20045;-60
2023/06/02 06:17:49;;;;;;;23.35;13.63;;;;;;;13.76;69.52;101054.84;8311258;28;20095;-61
2023/06/02 06:21:49;;;;;;;30.92;13.35;;;;;;;13.80;69.59;101059.84;8319188;28;20041;-63
2023/06/02 06:25:51;;;;;;;27.17;13.00;;;;;;;13.80;69.49;101051.69;8320309;28;20033;-63
2023/06/02 06:29:52;;;;;;;21.80;12.40;;;;;;;13.93;69.76;101056.78;8319315;28;20491;-63
2023/06/02 06:33:53;;;;;;;20.25;12.88;;;;;;;13.78;69.15;101059.13;8305157;28;20790;-63
2023/06/02 06:37:56;;;;;;;28.08;14.23;;;;;;;13.92;68.90;101059.63;8297725;28;20116;-63
2023/06/02 06:41:57;;;;;;;23.60;13.38;;;;;;;13.77;68.40;101061.97;8303506;28;20041;-63
2023/06/02 06:46:10;;;;;;;26.20;14.68;;;;;;;13.82;69.45;101065.13;8307653;28;20030;-63
2023/06/02 06:50:12;;;;;;;23.80;13.55;;;;;;;13.83;69.04;101061.41;8287276;28;20522;-63
2023/06/02 06:54:15;;;;;;;24.35;12.68;;;;;;;13.87;68.54;101068.22;8318447;28;20044;-63
2023/06/02 06:58:15;;;;;;;27.35;13.55;;;;;;;13.87;69.37;101067.41;8324853;28;20696;-63
2023/06/02 07:02:15;;;;;;;25.30;13.85;;;;;;;13.92;68.74;101065.94;8326027;28;20569;-63
2023/06/02 07:06:16;;;;;;;34.92;15.57;;;;;;;14.04;69.10;101062.03;8325586;28;20049;-63
2023/06/02 07:10:16;;;;;;;25.08;15.13;;;;;;;14.12;68.04;101062.13;8325761;28;20407;-63
2023/06/02 07:14:17;;;;;;;28.75;14.40;;;;;;;14.38;67.34;101063.19;8332911;28;20060;-63
2023/06/02 07:18:17;;;;;;;27.23;14.98;;;;;;;14.43;67.64;101055.44;8358655;28;20033;-63
2023/06/02 07:22:18;;;;;;;33.78;15.05;;;;;;;14.51;67.87;101052.78;8338098;28;20518;-63
2023/06/02 07:26:18;;;;;;;25.38;14.40;;;;;;;14.76;67.10;101057.47;8298236;28;20404;-60
2023/06/02 07:30:20;;;;;;;26.65;14.88;;;;;;;14.75;66.82;101054.91;8292133;28;20535;-60
2023/06/02 07:34:21;;;;;;;26.15;15.48;;;;;;;14.96;66.07;101074.53;8292241;28;20041;-60
2023/06/02 07:38:21;;;;;;;26.50;15.07;;;;;;;14.89;66.33;101046.22;8292641;28;20041;-60
2023/06/02 07:42:22;;;;;;;24.40;15.25;;;;;;;14.96;65.69;101064.50;8314482;28;20060;-60
2023/06/02 07:46:22;;;;;;;26.63;14.30;;;;;;;15.04;65.59;101061.84;8296681;28;20037;-60
2023/06/02 07:50:23;;;;;;;27.48;14.88;;;;;;;15.35;65.41;101065.91;8324794;28;20526;-60
2023/06/02 07:54:24;;;;;;;32.15;15.55;;;;;;;15.22;64.26;101065.41;8320752;28;20041;-60
2023/06/02 07:58:24;;;;;;;30.20;16.67;;;;;;;15.17;64.52;101062.34;8324812;28;20038;-60
2023/06/02 08:02:25;;;;;;;28.85;15.77;;;;;;;15.11;64.59;101065.69;8306915;28;20038;-60
2023/06/02 08:06:25;;;;;;;25.58;15.55;;;;;;;15.51;65.16;101059.72;8313999;28;20071;-60
2023/06/02 08:10:25;;;;;;;29.08;17.27;;;;;;;15.39;64.82;101061.88;8324211;28;20613;-60
2023/06/02 08:14:26;;;;;;;28.63;16.55;;;;;;;15.45;64.21;101066.69;8321408;28;20622;-61
2023/06/02 08:18:26;;;;;;;29.92;15.93;;;;;;;15.42;64.15;101052.50;8293440;28;20053;-61
2023/06/02 08:22:30;;;;;;;28.23;13.75;;;;;;;15.44;64.28;101058.66;8310768;28;20132;-60
2023/06/02 08:26:34;;;;;;;21.77;13.65;;;;;;;15.69;64.25;101053.25;8322660;28;20518;-61
2023/06/02 08:30:35;;;;;;;27.80;13.82;;;;;;;16.08;63.45;101058.22;8320444;28;22658;-61
2023/06/02 08:34:36;;;;;;;19.98;12.27;;;;;;;16.28;63.09;101054.25;8314927;28;20057;-60
2023/06/02 08:38:40;;;;;;;25.60;13.73;;;;;;;16.23;63.48;101056.59;8314098;28;20049;-60
2023/06/02 08:42:40;;;;;;;26.60;15.48;;;;;;;16.03;63.31;101055.13;8310850;28;20403;-60
2023/06/02 08:46:41;;;;;;;28.00;14.00;;;;;;;15.83;63.44;101051.78;8323221;28;20034;-60
2023/06/02 08:50:45;;;;;;;31.50;16.70;;;;;;;16.04;63.62;101045.94;8322730;28;20121;-60
2023/06/02 08:54:46;;;;;;;27.00;14.83;;;;;;;16.10;63.61;101045.28;8333644;28;20049;-62
2023/06/02 08:58:48;;;;;;;45.75;20.60;;;;;;;16.11;63.40;101053.31;8319594;28;20124;-60
2023/06/02 09:02:49;;;;;;;35.08;17.80;;;;;;;16.36;63.76;101054.25;8320076;28;20477;-61
2023/06/02 09:07:15;;;;;;;26.23;14.38;;;;;;;16.28;62.84;101059.69;8321821;28;20119;-61
2023/06/02 09:11:17;;;;;;;19.05;12.70;;;;;;;16.49;62.38;101041.03;8322285;28;20137;-61
2023/06/02 09:15:18;;;;;;;25.55;13.77;;;;;;;16.65;62.08;101057.47;8317545;28;20360;-61
2023/06/02 09:19:19;;;;;;;25.77;13.52;;;;;;;16.83;61.42;101058.19;8318991;28;20042;-61
2023/06/02 09:23:20;;;;;;;26.15;14.85;;;;;;;16.85;60.52;101058.88;8298725;28;20073;-60
2023/06/02 09:27:21;;;;;;;27.63;14.63;;;;;;;16.84;60.73;101057.19;8311577;28;20045;-61
2023/06/02 09:31:24;;;;;;;26.55;15.13;;;;;;;17.05;61.77;101054.81;8321233;28;20049;-60
2023/06/02 09:35:42;;;;;;;27.08;14.63;;;;;;;17.18;61.64;101060.63;8319705;28;20045;-61
2023/06/02 09:39:48;;;;;;;30.27;15.45;;;;;;;17.04;60.71;101059.41;8321344;28;20068;-60
2023/06/02 09:43:49;;;;;;;29.98;16.15;;;;;;;17.28;60.41;101050.38;8317431;28;20037;-61
2023/06/02 09:47:50;;;;;;;31.45;16.42;;;;;;;17.43;60.03;101044.09;8320674;28;20399;-61
2023/06/02 09:51:51;;;;;;;32.20;15.73;;;;;;;17.85;58.79;101043.88;8320973;28;20157;-61
2023/06/02 09:55:51;;;;;;;27.80;15.27;;;;;;;18.16;57.63;101035.72;8320601;28;20474;-61
2023/06/02 09:59:52;;;;;;;31.80;16.88;;;;;;;18.31;57.62;101045.78;8327193;28;20037;-64
2023/06/02 10:03:52;;;;;;;28.83;16.08;;;;;;;19.83;58.68;101043.84;8299203;28;20033;-64
2023/06/02 10:08:32;;;;;;;28.48;17.50;;;;;;;18.98;58.62;101038.75;8288320;28;20076;-64
2023/06/02 10:13:13;;;;;;;27.27;16.05;;;;;;;18.32;57.44;101042.00;8280226;28;20540;-65
2023/06/02 10:17:43;;;;;;;29.90;16.52;;;;;;;20.78;53.86;101040.13;8320505;28;20171;-65
2023/06/02 10:22:16;;;;;;;26.73;16.67;;;;;;;20.87;52.78;101014.22;8319857;28;20056;-65
2023/06/02 10:26:38;;;;;;;18.52;13.23;;;;;;;21.52;50.37;101031.38;8311412;28;20041;-64
2023/06/02 10:30:38;;;;;;;22.20;14.85;;;;;;;22.73;49.23;101027.09;8320811;28;20510;-64
2023/06/02 10:34:40;;;;;;;19.25;10.57;;;;;;;23.42;48.47;101027.69;8325215;28;20381;-65
2023/06/02 10:38:40;;;;;;;19.15;10.63;;;;;;;23.50;48.08;101030.22;8314020;28;20120;-64
2023/06/02 10:43:08;;;;;;;15.88;9.48;;;;;;;23.73;46.68;101025.16;8318373;28;20041;-65
2023/06/02 10:52:03;;;;;;;21.85;10.80;;;;;;;23.81;46.92;101024.91;8344718;27;20909;-64
2023/06/02 10:56:39;;;;;;;21.92;12.75;;;;;;;22.73;48.75;101016.94;8348439;28;20280;-64
2023/06/02 11:00:40;;;;;;;23.63;12.35;;;;;;;23.46;48.35;101002.22;8348594;28;20048;-63
2023/06/02 11:04:44;;;;;;;20.70;11.82;;;;;;;24.86;47.28;101009.75;8347991;28;20535;-63
2023/06/02 11:08:45;;;;;;;;;;;;;;;22.25;49.04;101008.81;8341299;28;20099;-62
2023/06/02 11:17:31;;;;;;;14.88;8.27;;;;;;;23.33;46.63;101018.78;8318820;28;20466;-64
2023/06/02 11:21:31;;;;;;;17.95;8.43;;;;;;;23.70;45.74;101009.00;8324623;28;20141;-63
2023/06/02 11:25:32;;;;;;;17.52;8.27;;;;;;;24.04;45.18;101006.00;8348613;28;20069;-64
2023/06/02 11:29:32;;;;;;;19.27;8.70;;;;;;;23.50;46.45;101002.63;8348789;28;20102;-64
2023/06/02 11:33:34;;;;;;;17.30;8.55;;;;;;;23.50;46.42;101003.50;8348839;28;20116;-60
2023/06/02 11:37:40;;;;;;;17.25;8.10;;;;;;;23.86;46.74;100997.50;8338055;28;20057;-60
2023/06/02 11:41:54;;;;;;;15.02;7.47;;;;;;;24.32;45.69;101001.03;8311498;28;20037;-60
2023/06/02 11:46:05;;;;;;;16.25;7.55;;;;;;;23.91;46.13;100997.72;8311618;28;20120;-63
2023/06/02 11:50:06;;;;;;;16.70;7.90;;;;;;;23.46;46.49;100998.59;8317608;28;20038;-63
2023/06/02 11:54:07;;;;;;;21.45;8.25;;;;;;;23.33;47.54;100991.19;8346242;28;20041;-63
2023/06/02 11:58:26;;;;;;;17.00;7.85;;;;;;;23.94;46.68;100978.78;8343099;28;20071;-63
2023/06/02 12:02:27;;;;;;;14.57;8.45;;;;;;;23.59;47.10;100979.25;8343189;28;20052;-63
2023/06/02 12:06:28;;;;;;;25.75;8.50;;;;;;;22.79;47.98;100980.25;8342593;28;20042;-63
2023/06/02 12:10:31;;;;;;;21.27;8.63;;;;;;;21.08;51.67;100976.59;8323313;28;20140;-63
2023/06/02 12:14:37;;;;;;;22.75;8.70;;;;;;;19.99;53.92;100975.06;8311541;28;20045;-63
2023/06/02 12:18:37;;;;;;;13.93;7.75;;;;;;;19.66;54.17;100965.47;8314209;28;20420;-63
2023/06/02 12:22:57;;;;;;;22.00;8.60;;;;;;;19.30;54.49;100973.56;8331836;28;20056;-63
2023/06/02 12:26:58;;;;;;;19.15;9.25;;;;;;;19.13;56.22;100971.97;8330398;28;20627;-63
2023/06/02 12:30:58;;;;;;;19.67;9.25;;;;;;;19.24;56.58;100963.31;8310824;28;20148;-63
2023/06/02 12:34:59;;;;;;;20.77;9.05;;;;;;;19.31;56.54;100971.69;8289162;28;20128;-63
2023/06/02 12:39:00;;;;;;;18.02;7.43;;;;;;;19.45;55.76;100965.34;8289879;28;20481;-61
2023/06/02 12:43:01;;;;;;;19.35;8.98;;;;;;;19.23;55.32;100972.59;8282365;28;20415;-60
2023/06/02 12:47:01;;;;;;;16.60;8.23;;;;;;;19.16;56.32;100963.38;8274754;28;20036;-60
2023/06/02 12:51:02;;;;;;;21.42;9.10;;;;;;;18.98;56.00;100962.88;8287600;28;20049;-60
2023/06/02 12:55:03;;;;;;;25.48;8.15;;;;;;;19.40;55.75;100960.44;8277467;28;20343;-65
2023/06/02 12:59:04;;;;;;;18.58;7.28;;;;;;;19.43;55.23;100951.84;8290357;28;20042;-65
2023/06/02 13:03:05;;;;;;;17.55;7.55;;;;;;;19.91;58.43;100950.44;8288049;28;20045;-65
2023/06/02 13:07:08;;;;;;;18.40;8.57;;;;;;;19.67;54.65;100963.59;8286503;28;20044;-65
2023/06/02 13:11:09;;;;;;;19.35;8.27;;;;;;;19.49;55.06;100956.56;8280851;28;20148;-65
2023/06/02 13:15:10;;;;;;;22.33;9.80;;;;;;;19.81;54.96;100960.84;8288155;28;20246;-65
2023/06/02 13:19:11;;;;;;;19.30;8.02;;;;;;;20.25;55.06;100955.38;8289032;28;20061;-65
2023/06/02 13:23:11;;;;;;;21.30;10.15;;;;;;;20.01;54.81;100951.00;8310946;28;20067;-65
2023/06/02 13:27:12;;;;;;;18.95;8.93;;;;;;;20.60;57.39;100938.88;8320964;28;20496;-65
2023/06/02 13:31:13;;;;;;;17.95;8.55;;;;;;;20.74;53.65;100948.94;8288643;28;20069;-65
2023/06/02 13:35:14;;;;;;;15.48;8.75;;;;;;;20.57;53.11;100933.78;8290698;28;20512;-65
2023/06/02 13:39:15;;;;;;;15.60;7.88;;;;;;;20.52;53.84;100932.66;8276744;28;20038;-65
2023/06/02 13:43:15;;;;;;;16.63;9.25;;;;;;;20.71;52.92;100929.28;8278219;28;20030;-64
2023/06/02 13:47:16;;;;;;;20.27;8.55;;;;;;;20.72;53.19;100922.72;8268827;28;20038;-62
2023/06/02 13:51:17;;;;;;;15.43;8.18;;;;;;;20.79;52.71;100918.13;8281665;28;20113;-63
2023/06/02 13:55:17;;;;;;;19.13;7.43;;;;;;;20.73;54.36;100913.41;8286449;28;20252;-63
2023/06/02 13:59:19;;;;;;;18.95;8.32;;;;;;;20.63;53.60;100912.91;8284431;28;20535;-63
2023/06/02 14:03:19;;;;;;;16.58;6.63;;;;;;;20.86;54.56;100905.31;8286096;28;20070;-63
2023/06/02 14:07:19;;;;;;;14.57;6.25;;;;;;;20.96;54.22;100914.09;8262291;28;20049;-64
2023/06/02 14:11:22;;;;;;;19.17;5.63;;;;;;;21.03;53.75;100904.00;8279726;28;20042;-63
2023/06/02 14:15:22;;;;;;;13.75;5.43;;;;;;;21.19;53.23;100903.69;8285461;28;20591;-64
2023/06/02 14:19:23;;;;;;;16.00;5.38;;;;;;;20.90;52.73;100906.59;8285211;28;20140;-63
2023/06/02 14:23:23;;;;;;;18.63;6.30;;;;;;;21.19;55.20;100889.94;8286616;28;20056;-64
2023/06/02 14:27:24;;;;;;;15.80;6.60;;;;;;;21.44;54.98;100890.34;8266064;28;20436;-64
2023/06/02 14:31:24;;;;;;;18.23;6.97;;;;;;;21.33;55.72;100898.13;8276509;28;20072;-63
2023/06/02 14:35:25;;;;;;;16.27;6.57;;;;;;;21.49;55.28;100882.31;8280103;28;20041;-63
2023/06/02 14:39:25;;;;;;;16.85;6.22;;;;;;;21.24;54.58;100891.06;8284578;28;20358;-63
2023/06/02 14:43:26;;;;;;;21.35;6.00;;;;;;;21.23;53.56;100888.53;8284425;28;20092;-63
2023/06/02 14:47:32;;;;;;;15.43;6.28;;;;;;;21.17;54.96;100872.81;8285880;28;20140;-64
2023/06/02 14:51:33;;;;;;;14.93;6.07;;;;;;;21.22;55.15;100870.31;8284817;28;20128;-64
2023/06/02 14:55:34;;;;;;;16.83;6.07;;;;;;;21.28;54.69;100883.25;8281261;28;20056;-64
2023/06/02 14:59:35;;;;;;;11.90;5.93;;;;;;;21.09;53.82;100882.06;8284756;28;20559;-63
2023/06/02 15:03:36;;;;;;;13.45;6.03;;;;;;;21.40;55.44;100872.56;8284257;28;20627;-60
2023/06/02 15:07:36;;;;;;;21.13;6.68;;;;;;;21.23;56.24;100872.84;8281632;28;20044;-60
2023/06/02 15:11:36;;;;;;;17.60;7.00;;;;;;;21.33;55.65;100878.00;8279711;28;20049;-60
2023/06/02 15:15:38;;;;;;;15.30;6.40;;;;;;;21.31;55.15;100863.59;8253966;28;20046;-60
2023/06/02 15:19:38;;;;;;;15.80;5.97;;;;;;;21.45;55.44;100857.13;8259160;28;20041;-60
2023/06/02 15:23:38;;;;;;;11.88;5.50;;;;;;;21.59;55.95;100856.16;8282802;28;20052;-60
2023/06/02 15:27:40;;;;;;;13.05;5.28;;;;;;;21.43;55.71;100856.47;8283170;28;20499;-61
2023/06/02 15:31:40;;;;;;;18.42;5.25;;;;;;;21.63;55.43;100851.94;8283406;28;20042;-60
2023/06/02 15:35:41;;;;;;;15.35;4.95;;;;;;;21.74;56.12;100854.13;8283773;28;20578;-60
2023/06/02 15:39:41;;;;;;;15.05;5.60;;;;;;;21.22;54.66;100848.28;8281656;28;20586;-60
2023/06/02 15:43:42;;;;;;;14.05;5.00;;;;;;;21.21;56.61;100847.47;8283883;28;20568;-60
2023/06/02 15:47:42;;;;;;;11.50;3.75;;;;;;;21.50;56.62;100856.53;8283488;28;20430;-60
2023/06/02 15:51:44;;;;;;;20.75;4.43;;;;;;;21.41;55.68;100844.84;8275394;28;20057;-60
2023/06/02 15:55:45;;;;;;;13.48;4.40;;;;;;;21.46;56.14;100845.06;8272318;28;20049;-60
2023/06/02 15:59:45;;;;;;;14.77;4.53;;;;;;;21.49;55.88;100849.31;8254377;28;20058;-61
2023/06/02 16:03:46;;;;;;;12.85;3.70;;;;;;;21.43;57.00;100850.97;8285760;28;20045;-60
2023/06/02 16:07:46;;;;;;;13.75;4.03;;;;;;;21.48;56.39;100848.47;8288301;28;20418;-60
2023/06/02 16:11:47;;;;;;;12.80;4.53;;;;;;;21.20;56.34;100850.41;8286378;28;20420;-60
2023/06/02 16:15:47;;;;;;;12.02;4.30;;;;;;;21.24;56.70;100841.56;8286896;28;20042;-60
2023/06/02 16:19:48;;;;;;;12.65;4.20;;;;;;;21.42;56.85;100843.78;8287310;28;20520;-60
2023/06/02 16:23:50;;;;;;;15.60;5.25;;;;;;;21.49;57.08;100855.69;8314720;28;20128;-60
2023/06/02 16:27:50;;;;;;;8.77;4.10;;;;;;;21.32;57.00;100854.31;8316200;28;20064;-60
2023/06/02 16:31:51;;;;;;;13.25;3.78;;;;;;;21.33;57.57;100845.00;8284188;28;20038;-60
2023/06/02 16:35:51;;;;;;;14.55;4.45;;;;;;;21.33;56.77;100840.34;8280128;28;20077;-60
2023/06/02 16:39:52;;;;;;;12.63;3.97;;;;;;;21.31;57.48;100836.94;8287838;28;20042;-60
2023/06/02 16:43:52;;;;;;;12.30;3.17;;;;;;;21.37;57.82;100840.78;8288556;28;20296;-60
2023/06/02 16:47:53;;;;;;;10.43;3.58;;;;;;;21.06;57.91;100837.63;8274538;28;20037;-60
2023/06/02 16:51:53;;;;;;;12.05;3.20;;;;;;;20.98;58.70;100835.03;8292862;28;20037;-60
2023/06/02 16:55:54;;;;;;;12.50;3.45;;;;;;;20.97;58.13;100830.56;8286826;28;20057;-60
2023/06/02 16:59:55;;;;;;;17.92;4.35;;;;;;;21.09;57.93;100837.22;8286579;28;20493;-60
2023/06/02 17:03:55;;;;;;;8.43;3.70;;;;;;;20.95;57.61;100829.94;8270288;28;20444;-59
2023/06/02 17:07:56;;;;;;;9.90;3.72;;;;;;;21.00;57.60;100832.91;8281095;28;20181;-59
2023/06/02 17:11:56;;;;;;;14.80;3.33;;;;;;;20.87;57.55;100832.78;8287401;28;20082;-59
2023/06/02 17:15:57;;;;;;;11.45;3.20;;;;;;;20.74;58.39;100838.19;8288274;28;20107;-59
2023/06/02 17:19:57;;;;;;;12.45;3.42;;;;;;;20.74;58.05;100832.69;8288013;28;20065;-60
2023/06/02 17:23:58;;;;;;;10.75;3.38;;;;;;;20.79;57.90;100831.03;8285561;28;20034;-60
2023/06/02 17:27:58;;;;;;;10.50;3.63;;;;;;;20.67;58.61;100845.50;8286819;28;20072;-60
2023/06/02 17:31:59;;;;;;;8.45;3.25;;;;;;;20.57;58.21;100834.00;8276779;28;20068;-59
2023/06/02 17:35:59;;;;;;;13.75;3.67;;;;;;;20.64;58.56;100844.00;8286708;28;20045;-60
2023/06/02 17:40:00;;;;;;;16.27;3.80;;;;;;;20.78;58.29;100844.97;8265669;28;20485;-59
2023/06/02 17:44:01;;;;;;;8.63;2.88;;;;;;;20.71;58.21;100855.06;8265472;28;20545;-59
2023/06/02 17:48:01;;;;;;;14.75;3.50;;;;;;;20.65;57.91;100850.34;8282505;28;20515;-59
2023/06/02 17:52:03;;;;;;;9.70;2.90;;;;;;;20.64;58.52;100848.63;8297774;28;20363;-60
2023/06/02 17:56:03;;;;;;;9.30;3.30;;;;;;;20.59;58.83;100851.97;8285219;28;20045;-59
2023/06/02 18:00:05;;;;;;;9.20;2.90;;;;;;;20.59;58.46;100851.16;8267053;28;20507;-60
2023/06/02 18:04:20;;;;;;;8.98;3.03;;;;;;;20.40;58.49;100855.38;8318499;28;20429;-60
2023/06/02 18:08:21;;;;;;;15.63;3.30;;;;;;;20.38;59.31;100859.38;8315025;28;20030;-59
2023/06/02 18:12:21;;;;;;;9.07;2.63;;;;;;;20.27;59.18;100857.13;8314849;28;20495;-60
2023/06/02 18:16:22;;;;;;;11.02;3.30;;;;;;;20.20;58.86;100858.97;8293099;28;20586;-60
2023/06/02 18:20:22;;;;;;;8.20;3.20;;;;;;;20.10;58.53;100863.91;8283131;28;20041;-59
2023/06/02 18:24:23;;;;;;;10.55;2.85;;;;;;;20.07;59.08;100862.38;8252014;28;20097;-62
2023/06/02 18:28:24;;;;;;;10.82;2.72;;;;;;;20.02;58.72;100869.50;8264025;28;20041;-62
2023/06/02 18:32:25;;;;;;;10.45;2.67;;;;;;;19.92;59.03;100857.97;8277443;28;20400;-63
2023/06/02 18:36:25;;;;;;;6.95;3.20;;;;;;;19.83;59.66;100861.88;8280738;28;20060;-63
2023/06/02 18:40:28;;;;;;;8.15;3.05;;;;;;;19.81;59.67;100872.19;8313913;28;20096;-63